Terminal Aerodrome Forecast
Issued by NWS

Home | Current Version | Previous Version | Text Only | Print | Product List | Glossary On
Versions: 1 2 3 4 5 6 7 8 9 10 11 12 13 14 15 16 17
000
FTUS43 KIND 312300
TAFHUF
TAF
KHUF 312321Z 0100/0124 26005KT P6SM VCSH SCT050 BKN080
     FM010100 26005KT P6SM FEW050 SCT080
     FM010300 00000KT P6SM SKC
      TEMPO 0109/0113 4SM BR
     FM011600 07005KT P6SM SCT040 SCT250=

USA.gov is the U.S. government's official web portal to all federal, state and local government web resources and services.